createdAt,value
2023-01-13T00:01:27.785Z,10.23
2023-01-13T00:03:56.909Z,8.90
2023-01-13T00:06:26.347Z,6.45
2023-01-13T00:08:55.237Z,10.35
2023-01-13T00:11:24.605Z,10.88
2023-01-13T00:13:53.781Z,10.27
2023-01-13T00:16:22.471Z,9.27
2023-01-13T00:18:52.134Z,10.27
2023-01-13T00:21:22.013Z,9.63
2023-01-13T00:23:51.471Z,11.02
2023-01-13T00:26:22.067Z,8.90
2023-01-13T00:28:50.965Z,10.13
2023-01-13T00:31:20.617Z,10.90
2023-01-13T00:33:51.392Z,9.50
2023-01-13T00:36:20.806Z,9.95
2023-01-13T00:38:49.742Z,9.90
2023-01-13T00:41:19.390Z,9.27
2023-01-13T00:43:48.436Z,8.88
2023-01-13T00:46:18.420Z,10.60
2023-01-13T00:48:47.648Z,8.55
2023-01-13T00:51:17.615Z,14.20
2023-01-13T00:53:50.394Z,12.25
2023-01-13T00:56:30.541Z,10.55
2023-01-13T00:59:08.059Z,10.10
2023-01-13T01:01:37.639Z,10.82
2023-01-13T01:04:06.537Z,10.00
2023-01-13T01:06:35.033Z,9.02
2023-01-13T01:09:03.828Z,11.25
2023-01-13T01:11:33.305Z,10.43
2023-01-13T01:14:03.014Z,10.98
2023-01-13T01:16:32.284Z,10.15
2023-01-13T01:19:02.162Z,10.10
2023-01-13T01:21:30.587Z,9.60
2023-01-13T01:24:00.821Z,12.57
2023-01-13T01:26:29.696Z,11.73
2023-01-13T01:28:58.825Z,10.38
2023-01-13T01:31:28.581Z,10.45
2023-01-13T01:33:57.788Z,16.00
2023-01-13T01:36:27.118Z,9.25
2023-01-13T01:38:56.641Z,9.68
2023-01-13T01:41:26.640Z,9.93
2023-01-13T01:44:04.147Z,10.77
2023-01-13T01:46:38.692Z,9.63
2023-01-13T01:49:26.304Z,6.90
2023-01-13T01:52:07.663Z,6.72
2023-01-13T01:54:44.372Z,12.13
2023-01-13T01:57:14.996Z,8.07
2023-01-13T01:59:44.589Z,8.10
2023-01-13T02:02:14.251Z,7.70
2023-01-13T02:04:51.042Z,8.60
2023-01-13T02:07:21.687Z,7.70
2023-01-13T02:09:50.906Z,9.63
2023-01-13T02:12:34.915Z,7.88
2023-01-13T02:15:09.867Z,8.23
2023-01-13T02:17:43.855Z,7.80
2023-01-13T02:20:18.716Z,8.27
2023-01-13T02:22:50.192Z,10.73
2023-01-13T02:25:34.247Z,8.95
2023-01-13T02:28:23.062Z,9.15
2023-01-13T02:31:13.348Z,10.77
2023-01-13T02:33:57.115Z,9.65
2023-01-13T02:36:33.739Z,10.05
2023-01-13T02:39:05.276Z,12.95
2023-01-13T02:42:01.877Z,10.60
2023-01-13T02:44:33.005Z,10.52
2023-01-13T02:47:01.652Z,14.00
2023-01-13T02:49:36.844Z,11.80
2023-01-13T02:52:13.901Z,12.02
2023-01-13T02:54:45.245Z,11.15
2023-01-13T02:57:15.776Z,12.40
2023-01-13T02:59:44.417Z,11.38
2023-01-13T03:02:16.503Z,10.60
2023-01-13T03:04:47.402Z,11.55
2023-01-13T03:07:19.055Z,11.75
2023-01-13T03:09:56.439Z,10.35
2023-01-13T03:12:38.615Z,10.88
2023-01-13T03:15:06.932Z,11.82
2023-01-13T03:17:41.326Z,9.50
2023-01-13T03:20:14.202Z,9.32
2023-01-13T03:22:50.794Z,9.77
2023-01-13T03:25:19.385Z,9.73
2023-01-13T03:27:51.204Z,10.10
2023-01-13T03:30:19.544Z,10.82
2023-01-13T03:32:52.290Z,12.45
2023-01-13T03:35:28.724Z,9.60
2023-01-13T03:38:06.173Z,9.23
2023-01-13T03:40:36.734Z,10.23
2023-01-13T03:43:28.769Z,9.48
2023-01-13T03:45:59.491Z,8.95
2023-01-13T03:48:30.318Z,9.45
2023-01-13T03:51:01.858Z,9.80
2023-01-13T03:53:33.545Z,10.10
2023-01-13T03:56:08.566Z,11.00
2023-01-13T03:58:40.497Z,10.98
2023-01-13T04:01:21.275Z,10.70
2023-01-13T04:03:50.097Z,10.15
2023-01-13T04:06:24.554Z,9.70
2023-01-13T04:09:08.701Z,8.77
2023-01-13T04:11:40.744Z,10.88
2023-01-13T04:14:11.125Z,9.18
2023-01-13T04:16:39.715Z,9.60
2023-01-13T04:19:08.288Z,9.35
2023-01-13T04:21:36.707Z,10.20
2023-01-13T04:24:05.540Z,9.10
2023-01-13T04:26:33.913Z,9.52
2023-01-13T04:29:02.767Z,9.25
2023-01-13T04:31:31.097Z,9.20
2023-01-13T04:33:59.875Z,10.50
2023-01-13T04:36:28.536Z,9.23
2023-01-13T04:38:57.838Z,8.45
2023-01-13T04:41:26.390Z,10.00
2023-01-13T04:43:55.298Z,9.40
2023-01-13T04:46:24.290Z,11.75
2023-01-13T04:48:53.428Z,8.95
2023-01-13T04:51:21.898Z,9.77
2023-01-13T04:53:52.570Z,7.63
2023-01-13T04:56:20.988Z,8.18
2023-01-13T04:58:49.987Z,8.40
2023-01-13T05:01:19.685Z,8.88
2023-01-13T05:03:48.601Z,7.72
2023-01-13T05:06:16.855Z,7.45
2023-01-13T05:08:45.576Z,7.15
2023-01-13T05:11:32.602Z,8.27
2023-01-13T05:14:19.797Z,7.13
2023-01-13T05:17:03.566Z,7.32
2023-01-13T05:19:33.771Z,9.02
2023-01-13T05:22:21.432Z,7.80
2023-01-13T05:25:09.080Z,8.18
2023-01-13T05:27:37.494Z,8.52
2023-01-13T05:30:06.753Z,8.15
2023-01-13T05:32:35.041Z,7.38
2023-01-13T05:35:03.727Z,8.95
2023-01-13T05:37:32.188Z,7.10
2023-01-13T05:40:19.714Z,7.18
2023-01-13T05:43:06.902Z,7.75
2023-01-13T05:45:35.958Z,6.65
2023-01-13T05:48:04.506Z,7.25
2023-01-13T05:50:33.153Z,8.82
2023-01-13T05:53:06.933Z,7.82
2023-01-13T05:55:35.748Z,6.85
2023-01-13T05:58:04.120Z,6.80
2023-01-13T06:00:33.144Z,11.60
2023-01-13T06:03:01.527Z,10.80
2023-01-13T06:05:30.571Z,7.43
2023-01-13T06:08:02.053Z,9.95
2023-01-13T06:10:30.904Z,8.57
2023-01-13T06:12:59.344Z,14.50
2023-01-13T06:15:28.104Z,6.82
2023-01-13T06:17:57.297Z,6.78
2023-01-13T06:20:25.975Z,6.70
2023-01-13T06:22:54.834Z,18.42
2023-01-13T06:25:26.817Z,9.68
2023-01-13T06:27:55.648Z,6.30
2023-01-13T06:30:24.444Z,6.70
2023-01-13T06:32:54.150Z,5.70
2023-01-13T06:35:26.386Z,9.13
2023-01-13T06:37:56.157Z,18.48
2023-01-13T06:40:25.122Z,6.93
2023-01-13T06:43:16.144Z,7.45
2023-01-13T06:45:55.999Z,7.28
2023-01-13T06:48:26.064Z,10.93
2023-01-13T06:51:08.066Z,18.70
2023-01-13T06:53:36.597Z,33.67
2023-01-13T06:56:07.636Z,32.15
2023-01-13T07:01:42.345Z,25.67
2023-01-13T07:04:11.752Z,20.20
2023-01-13T07:06:40.469Z,19.23
2023-01-13T07:09:08.776Z,19.15
2023-01-13T07:11:37.404Z,17.52
2023-01-13T07:14:24.563Z,17.05
2023-01-13T07:16:54.272Z,13.15
2023-01-13T07:19:24.013Z,16.48
2023-01-13T07:21:53.135Z,23.92
2023-01-13T07:24:22.574Z,15.23
2023-01-13T07:26:52.559Z,15.93
2023-01-13T07:29:21.254Z,30.42
2023-01-13T07:31:50.482Z,11.00
2023-01-13T07:34:18.719Z,20.90
2023-01-13T07:36:47.667Z,48.88
2023-01-13T07:39:16.066Z,35.15
2023-01-13T07:42:03.143Z,21.17
2023-01-13T07:44:31.643Z,20.38
2023-01-13T07:47:00.426Z,25.13
2023-01-13T07:49:28.723Z,17.90
2023-01-13T07:51:57.325Z,24.08
2023-01-13T07:54:39.733Z,33.20
2023-01-13T07:57:09.618Z,16.42
2023-01-13T07:59:37.809Z,20.40
2023-01-13T08:02:06.659Z,14.43
2023-01-13T08:04:35.106Z,10.60
2023-01-13T08:07:04.734Z,12.75
2023-01-13T08:09:33.057Z,15.95
2023-01-13T08:12:20.246Z,14.07
2023-01-13T08:14:50.292Z,11.88
2023-01-13T08:17:20.541Z,9.50
2023-01-13T08:19:49.056Z,12.30
2023-01-13T08:22:17.566Z,12.52
2023-01-13T08:24:45.732Z,14.32
2023-01-13T08:27:14.370Z,9.30
2023-01-13T08:29:42.747Z,12.18
2023-01-13T08:32:11.459Z,11.77
2023-01-13T08:34:39.760Z,12.55
2023-01-13T08:37:08.621Z,10.15
2023-01-13T08:39:37.006Z,13.85
2023-01-13T08:46:51.693Z,15.52
2023-01-13T08:49:20.396Z,9.65
2023-01-13T08:51:50.204Z,9.52
2023-01-13T08:54:19.262Z,11.02
2023-01-13T08:56:48.301Z,11.15
2023-01-13T08:59:17.851Z,9.35
2023-01-13T09:01:46.747Z,10.45
2023-01-13T09:04:19.852Z,8.02
2023-01-13T09:06:48.645Z,7.90
2023-01-13T09:09:17.192Z,7.72
2023-01-13T09:12:09.256Z,8.07
2023-01-13T09:14:39.167Z,9.15
2023-01-13T09:17:08.737Z,7.78
2023-01-13T09:19:37.369Z,7.90
2023-01-13T09:22:06.011Z,9.75
2023-01-13T09:24:34.374Z,10.68
2023-01-13T09:27:02.990Z,9.57
2023-01-13T09:29:31.353Z,10.73
2023-01-13T09:32:00.152Z,8.82
2023-01-13T09:34:47.124Z,8.30
2023-01-13T09:37:15.998Z,11.02
2023-01-13T09:39:44.502Z,8.65
2023-01-13T09:42:50.903Z,26.20
2023-01-13T09:45:19.243Z,9.50
2023-01-13T09:47:57.838Z,14.73
2023-01-13T09:50:45.095Z,10.60
2023-01-13T09:53:19.099Z,12.43
2023-01-13T09:55:48.009Z,16.80
2023-01-13T09:58:18.587Z,11.73
2023-01-13T10:00:51.956Z,10.23
2023-01-13T10:03:25.973Z,14.88
2023-01-13T10:08:58.372Z,16.60
2023-01-13T10:11:49.466Z,10.35
2023-01-13T10:14:24.430Z,10.75
2023-01-13T10:17:12.035Z,13.95
2023-01-13T10:20:03.807Z,18.67
2023-01-13T10:22:46.571Z,18.38
2023-01-13T10:25:38.387Z,16.40
2023-01-13T10:28:11.099Z,18.92
2023-01-13T10:30:41.441Z,28.10
2023-01-13T10:33:14.829Z,47.78
2023-01-13T10:35:59.977Z,31.65
2023-01-13T10:38:30.326Z,32.40
2023-01-13T10:41:02.368Z,17.10
2023-01-13T10:43:31.203Z,20.67
2023-01-13T10:46:01.588Z,38.75
2023-01-13T10:48:40.881Z,19.92
2023-01-13T10:51:31.388Z,45.38
2023-01-13T10:53:59.650Z,29.95
2023-01-13T10:56:30.926Z,12.13
2023-01-13T10:59:14.968Z,16.88
2023-01-13T11:01:45.176Z,30.83
2023-01-13T11:04:36.328Z,30.77
2023-01-13T11:07:07.255Z,11.57
2023-01-13T11:09:35.609Z,11.25
2023-01-13T11:12:04.261Z,12.35
2023-01-13T11:14:41.886Z,11.20
2023-01-13T11:17:17.917Z,9.63
2023-01-13T11:19:54.337Z,11.77
2023-01-13T11:22:40.771Z,14.20
2023-01-13T11:25:14.165Z,52.22
2023-01-13T11:27:48.235Z,36.67
2023-01-13T11:30:19.011Z,19.77
2023-01-13T11:33:01.585Z,18.55
2023-01-13T11:35:33.066Z,20.60
2023-01-13T11:38:23.950Z,15.85
2023-01-13T11:40:54.869Z,27.15
2023-01-13T11:43:44.702Z,28.08
2023-01-13T11:46:15.348Z,24.13
2023-01-13T11:48:46.707Z,15.05
2023-01-13T11:51:24.883Z,16.70
2023-01-13T11:54:07.267Z,30.02
2023-01-13T11:56:41.289Z,30.00
2023-01-13T11:59:31.337Z,33.38
2023-01-13T12:02:21.157Z,20.25
2023-01-13T12:05:11.810Z,23.33
2023-01-13T12:08:11.285Z,17.25
2023-01-13T12:11:00.795Z,18.77
2023-01-13T12:13:51.695Z,17.85
2023-01-13T12:16:30.765Z,14.52
2023-01-13T12:18:59.843Z,19.08
2023-01-13T12:21:33.243Z,15.18
2023-01-13T12:24:01.632Z,13.55
2023-01-13T12:26:34.693Z,20.92
2023-01-13T12:29:19.086Z,14.90
2023-01-13T12:31:50.149Z,16.38
2023-01-13T12:34:44.060Z,17.20
2023-01-13T12:37:31.811Z,15.00
2023-01-13T12:40:36.067Z,24.92
2023-01-13T12:43:31.447Z,18.92
2023-01-13T12:46:18.726Z,14.73
2023-01-13T12:48:49.307Z,14.25
2023-01-13T12:54:50.355Z,19.67
2023-01-13T13:01:16.850Z,21.33
2023-01-13T13:04:11.115Z,12.43
2023-01-13T13:06:44.011Z,15.45
2023-01-13T13:09:22.315Z,11.85
2023-01-13T13:11:59.643Z,12.43
2023-01-13T13:14:40.173Z,13.60
2023-01-13T13:18:30.378Z,13.07
2023-01-13T13:21:09.514Z,16.33
2023-01-13T13:23:55.399Z,12.60
2023-01-13T13:26:47.103Z,12.88
2023-01-13T13:29:32.596Z,20.05
2023-01-13T13:32:12.135Z,13.15
2023-01-13T13:35:18.138Z,14.45
2023-01-13T13:38:33.432Z,22.23
2023-01-13T13:41:32.125Z,14.15
2023-01-13T13:44:26.849Z,15.50
2023-01-13T13:47:00.477Z,9.80
2023-01-13T13:49:52.753Z,17.67
2023-01-13T13:53:01.666Z,13.18
2023-01-13T13:55:41.803Z,10.23
2023-01-13T13:58:18.283Z,13.38
2023-01-13T14:00:49.320Z,14.25
2023-01-13T14:03:36.705Z,12.43
2023-01-13T14:06:21.032Z,16.02
2023-01-13T14:09:20.515Z,15.30
2023-01-13T14:12:25.026Z,10.40
2023-01-13T14:14:57.156Z,17.23
2023-01-13T14:17:27.226Z,14.48
2023-01-13T14:20:14.857Z,10.85
2023-01-13T14:22:56.587Z,12.35
2023-01-13T14:25:33.525Z,13.07
2023-01-13T14:28:20.881Z,18.85
2023-01-13T14:33:43.463Z,19.02
2023-01-13T14:36:24.032Z,16.88
2023-01-13T14:39:05.574Z,27.30
2023-01-13T14:41:40.873Z,57.33
2023-01-13T14:44:26.050Z,32.72
2023-01-13T14:46:59.598Z,33.97
2023-01-13T14:49:36.015Z,82.25
2023-01-13T14:54:41.817Z,49.75
2023-01-13T14:57:23.258Z,71.78
2023-01-13T15:00:17.249Z,44.78
2023-01-13T15:03:09.076Z,32.47
2023-01-13T15:05:52.656Z,17.35
2023-01-13T15:08:43.820Z,14.40
2023-01-13T15:11:24.928Z,14.40
2023-01-13T15:14:16.248Z,24.75
2023-01-13T15:17:18.022Z,20.90
2023-01-13T15:19:55.948Z,22.63
2023-01-13T15:22:29.707Z,24.80
2023-01-13T15:24:59.419Z,26.02
2023-01-13T15:27:29.697Z,24.20
2023-01-13T15:30:03.208Z,22.00
2023-01-13T15:32:32.319Z,39.13
2023-01-13T15:35:03.176Z,68.25
2023-01-13T15:37:31.320Z,50.33
2023-01-13T15:40:05.252Z,45.50
2023-01-13T15:43:04.954Z,51.35
2023-01-13T15:45:56.320Z,31.38
2023-01-13T15:48:28.137Z,42.13
2023-01-13T15:50:57.915Z,41.30
2023-01-13T15:53:27.152Z,31.42
2023-01-13T15:55:58.470Z,41.03
2023-01-13T15:59:23.563Z,36.97
2023-01-13T16:02:19.938Z,20.35
2023-01-13T16:04:56.627Z,36.33
2023-01-13T16:07:46.403Z,30.48
2023-01-13T16:10:28.590Z,19.20
2023-01-13T16:13:14.088Z,37.35
2023-01-13T16:16:06.202Z,124.72
2023-01-13T16:18:34.314Z,52.58
2023-01-13T16:26:37.060Z,39.28
2023-01-13T16:29:25.018Z,43.60
2023-01-13T16:31:58.981Z,31.25
2023-01-13T16:34:28.938Z,29.10
2023-01-13T16:38:05.389Z,31.13
2023-01-13T16:40:56.337Z,34.88
2023-01-13T16:43:25.418Z,29.23
2023-01-13T16:45:54.311Z,26.05
2023-01-13T16:48:22.993Z,16.75
2023-01-13T16:50:52.828Z,19.65
2023-01-13T16:53:40.955Z,21.88
2023-01-13T16:56:26.520Z,22.92
2023-01-13T16:58:59.265Z,18.45
2023-01-13T17:01:31.563Z,18.10
2023-01-13T17:08:53.873Z,24.38
2023-01-13T17:11:22.441Z,20.90
2023-01-13T17:13:51.468Z,26.17
2023-01-13T17:16:22.242Z,41.22
2023-01-13T17:21:35.218Z,30.98
2023-01-13T17:24:16.935Z,39.25
2023-01-13T17:26:50.700Z,50.33
2023-01-13T17:32:41.439Z,19.20
2023-01-13T17:35:25.224Z,21.42
2023-01-13T17:37:55.090Z,17.83
2023-01-13T17:40:24.407Z,16.02
2023-01-13T17:42:53.131Z,23.70
2023-01-13T17:45:27.349Z,26.70
2023-01-13T17:47:58.509Z,30.27
2023-01-13T17:50:31.178Z,52.13
2023-01-13T17:52:59.885Z,28.50
2023-01-13T17:55:30.239Z,21.92
2023-01-13T17:57:58.552Z,23.92
2023-01-13T18:00:30.811Z,25.17
2023-01-13T18:02:58.972Z,23.05
2023-01-13T18:05:28.036Z,27.05
2023-01-13T18:07:56.984Z,26.13
2023-01-13T18:10:26.049Z,29.08
2023-01-13T18:12:56.561Z,26.85
2023-01-13T18:15:59.839Z,30.08
2023-01-13T18:18:32.446Z,47.78
2023-01-13T18:21:20.530Z,43.17
2023-01-13T18:24:08.010Z,30.52
2023-01-13T18:26:55.348Z,32.80
2023-01-13T18:29:25.109Z,36.60
2023-01-13T18:31:56.572Z,28.10
2023-01-13T18:34:53.976Z,35.03
2023-01-13T18:37:27.723Z,37.35
2023-01-13T18:39:56.108Z,39.10
2023-01-13T18:42:43.518Z,31.17
2023-01-13T18:45:12.360Z,33.38
2023-01-13T18:48:01.705Z,33.80
2023-01-13T18:50:29.920Z,28.75
2023-01-13T18:52:59.398Z,20.83
2023-01-13T18:55:28.836Z,72.03
2023-01-13T18:58:01.634Z,35.08
2023-01-13T19:00:39.323Z,30.45
2023-01-13T19:03:12.992Z,28.05
2023-01-13T19:05:41.577Z,23.13
2023-01-13T19:08:10.080Z,25.08
2023-01-13T19:10:39.775Z,23.27
2023-01-13T19:13:22.399Z,20.50
2023-01-13T19:15:51.038Z,26.73
2023-01-13T19:18:22.153Z,57.60
2023-01-13T19:20:59.970Z,31.85
2023-01-13T19:23:33.110Z,19.95
2023-01-13T19:26:09.512Z,23.75
2023-01-13T19:28:40.450Z,32.75
2023-01-13T19:31:11.310Z,27.83
2023-01-13T19:33:42.777Z,23.58
2023-01-13T19:36:11.446Z,20.48
2023-01-13T19:38:45.449Z,23.92
2023-01-13T19:41:51.135Z,23.70
2023-01-13T19:45:11.247Z,43.75
2023-01-13T19:47:42.716Z,75.78
2023-01-13T19:50:15.900Z,50.30
2023-01-13T19:52:44.693Z,24.85
2023-01-13T19:55:13.808Z,20.73
2023-01-13T19:57:41.891Z,29.38
2023-01-13T20:00:11.196Z,33.85
2023-01-13T20:02:48.006Z,27.08
2023-01-13T20:05:21.485Z,78.65
2023-01-13T20:07:58.854Z,64.55
2023-01-13T20:10:30.700Z,36.38
2023-01-13T20:13:00.419Z,49.10
2023-01-13T20:15:29.652Z,41.70
2023-01-13T20:18:08.113Z,21.58
2023-01-13T20:20:37.763Z,20.25
2023-01-13T20:23:08.475Z,20.00
2023-01-13T20:25:43.908Z,21.35
2023-01-13T20:28:12.058Z,16.35
2023-01-13T20:30:40.709Z,18.90
2023-01-13T20:33:09.384Z,22.33
2023-01-13T20:35:38.746Z,30.45
2023-01-13T20:38:07.437Z,42.92
2023-01-13T20:40:35.950Z,22.83
2023-01-13T20:43:10.551Z,17.67
2023-01-13T20:45:42.232Z,16.57
2023-01-13T20:48:30.079Z,19.23
2023-01-13T20:51:15.996Z,13.05
2023-01-13T20:53:44.182Z,23.48
2023-01-13T20:56:14.497Z,14.60
2023-01-13T20:58:44.094Z,14.45
2023-01-13T21:01:12.556Z,17.77
2023-01-13T21:03:41.625Z,15.73
2023-01-13T21:06:10.584Z,13.40
2023-01-13T21:08:38.903Z,17.73
2023-01-13T21:11:10.655Z,16.90
2023-01-13T21:14:47.170Z,33.13
2023-01-13T21:17:38.832Z,66.63
2023-01-13T21:20:18.531Z,56.70
2023-01-13T21:22:51.465Z,30.45
2023-01-13T21:26:20.075Z,16.98
2023-01-13T21:29:58.009Z,21.23
2023-01-13T21:33:26.420Z,16.58
2023-01-13T21:36:11.290Z,22.42
2023-01-13T21:39:01.291Z,21.27
2023-01-13T21:41:48.495Z,20.08
2023-01-13T21:44:42.162Z,22.50
2023-01-13T21:47:36.321Z,19.23
2023-01-13T21:50:09.577Z,18.23
2023-01-13T21:53:18.893Z,21.23
2023-01-13T21:55:52.141Z,17.65
2023-01-13T21:58:20.665Z,16.05
2023-01-13T22:02:23.960Z,13.13
2023-01-13T22:04:52.641Z,16.08
2023-01-13T22:07:22.012Z,20.40
2023-01-13T22:09:51.289Z,22.50
2023-01-13T22:12:24.425Z,16.10
2023-01-13T22:14:53.452Z,14.15
2023-01-13T22:17:22.992Z,15.88
2023-01-13T22:19:54.526Z,13.93
2023-01-13T22:22:23.510Z,14.93
2023-01-13T22:24:58.286Z,14.55
2023-01-13T22:27:29.191Z,13.70
2023-01-13T22:30:02.260Z,11.50
2023-01-13T22:33:26.340Z,13.02
2023-01-13T22:36:03.259Z,26.77
2023-01-13T22:38:33.714Z,27.45
2023-01-13T22:41:08.174Z,22.02
2023-01-13T22:43:38.042Z,20.00
2023-01-13T22:46:26.534Z,17.23
2023-01-13T22:48:55.976Z,11.70
2023-01-13T22:51:25.285Z,13.10
2023-01-13T22:53:55.480Z,11.60
2023-01-13T22:56:25.516Z,13.73
2023-01-13T22:59:24.649Z,17.75
2023-01-13T23:01:53.043Z,21.50
2023-01-13T23:04:21.381Z,12.60
2023-01-13T23:09:34.859Z,12.57
2023-01-13T23:12:03.312Z,11.60
2023-01-13T23:14:31.375Z,12.95
2023-01-13T23:16:59.694Z,14.95
2023-01-13T23:19:27.817Z,14.13
2023-01-13T23:21:56.032Z,13.77
2023-01-13T23:27:14.536Z,14.15
2023-01-13T23:29:43.328Z,18.50
2023-01-13T23:32:11.906Z,18.73
2023-01-13T23:34:40.327Z,12.77
2023-01-13T23:37:08.856Z,14.93
2023-01-13T23:39:37.738Z,11.40
2023-01-13T23:42:06.446Z,11.65
2023-01-13T23:44:38.004Z,13.77
2023-01-13T23:47:09.862Z,7.97
2023-01-13T23:49:38.109Z,12.45
2023-01-13T23:52:09.452Z,65.65
2023-01-13T23:54:40.232Z,27.60
2023-01-13T23:57:08.795Z,14.38
2023-01-13T23:59:37.910Z,29.48
